sensor_id;sensor_type;location;lat;lon;timestamp;P1;durP1;ratioP1;P2;durP2;ratioP2
72801;SDS011;61891;55.818;37.084;2023-07-13T00:01:28;11.25;;;3.83;;
72801;SDS011;61891;55.818;37.084;2023-07-13T00:06:21;4.38;;;2.50;;
72801;SDS011;61891;55.818;37.084;2023-07-13T00:08:47;2.75;;;1.85;;
72801;SDS011;61891;55.818;37.084;2023-07-13T00:11:15;4.72;;;1.98;;
72801;SDS011;61891;55.818;37.084;2023-07-13T00:13:42;6.35;;;3.60;;
72801;SDS011;61891;55.818;37.084;2023-07-13T00:16:09;5.25;;;2.38;;
72801;SDS011;61891;55.818;37.084;2023-07-13T00:18:36;3.58;;;2.45;;
72801;SDS011;61891;55.818;37.084;2023-07-13T00:21:03;3.85;;;2.30;;
72801;SDS011;61891;55.818;37.084;2023-07-13T00:23:33;3.67;;;2.30;;
72801;SDS011;61891;55.818;37.084;2023-07-13T00:26:01;3.22;;;2.03;;
72801;SDS011;61891;55.818;37.084;2023-07-13T00:28:28;3.00;;;2.35;;
72801;SDS011;61891;55.818;37.084;2023-07-13T00:30:54;6.38;;;2.45;;
72801;SDS011;61891;55.818;37.084;2023-07-13T00:33:20;3.60;;;2.20;;
72801;SDS011;61891;55.818;37.084;2023-07-13T00:35:46;3.70;;;2.45;;
72801;SDS011;61891;55.818;37.084;2023-07-13T00:38:13;2.78;;;2.08;;
72801;SDS011;61891;55.818;37.084;2023-07-13T00:40:39;4.15;;;2.17;;
72801;SDS011;61891;55.818;37.084;2023-07-13T00:43:18;3.60;;;2.30;;
72801;SDS011;61891;55.818;37.084;2023-07-13T00:48:14;3.30;;;2.15;;
72801;SDS011;61891;55.818;37.084;2023-07-13T00:50:46;5.03;;;2.28;;
72801;SDS011;61891;55.818;37.084;2023-07-13T00:53:17;5.55;;;2.63;;
72801;SDS011;61891;55.818;37.084;2023-07-13T00:55:44;4.55;;;2.47;;
72801;SDS011;61891;55.818;37.084;2023-07-13T00:58:10;5.13;;;2.35;;
72801;SDS011;61891;55.818;37.084;2023-07-13T01:00:36;5.55;;;2.72;;
72801;SDS011;61891;55.818;37.084;2023-07-13T01:03:04;5.30;;;2.80;;
72801;SDS011;61891;55.818;37.084;2023-07-13T01:05:32;5.20;;;2.53;;
72801;SDS011;61891;55.818;37.084;2023-07-13T01:07:59;4.93;;;2.40;;
72801;SDS011;61891;55.818;37.084;2023-07-13T01:10:27;5.68;;;2.80;;
72801;SDS011;61891;55.818;37.084;2023-07-13T01:12:53;4.32;;;2.50;;
72801;SDS011;61891;55.818;37.084;2023-07-13T01:18:11;4.50;;;2.20;;
72801;SDS011;61891;55.818;37.084;2023-07-13T01:20:40;3.75;;;2.60;;
72801;SDS011;61891;55.818;37.084;2023-07-13T01:23:08;4.07;;;2.13;;
72801;SDS011;61891;55.818;37.084;2023-07-13T01:25:36;4.25;;;2.50;;
72801;SDS011;61891;55.818;37.084;2023-07-13T01:28:04;3.13;;;1.90;;
72801;SDS011;61891;55.818;37.084;2023-07-13T01:30:31;3.88;;;2.42;;
72801;SDS011;61891;55.818;37.084;2023-07-13T01:32:58;3.78;;;2.13;;
72801;SDS011;61891;55.818;37.084;2023-07-13T01:35:26;4.32;;;2.25;;
72801;SDS011;61891;55.818;37.084;2023-07-13T01:37:53;3.38;;;2.20;;
72801;SDS011;61891;55.818;37.084;2023-07-13T01:40:19;4.32;;;2.47;;
72801;SDS011;61891;55.818;37.084;2023-07-13T01:45:11;6.00;;;2.97;;
72801;SDS011;61891;55.818;37.084;2023-07-13T01:47:37;4.30;;;2.70;;
72801;SDS011;61891;55.818;37.084;2023-07-13T01:50:03;4.32;;;2.38;;
72801;SDS011;61891;55.818;37.084;2023-07-13T01:52:29;4.05;;;2.15;;
72801;SDS011;61891;55.818;37.084;2023-07-13T01:54:57;7.40;;;3.70;;
72801;SDS011;61891;55.818;37.084;2023-07-13T01:57:23;10.00;;;4.43;;
72801;SDS011;61891;55.818;37.084;2023-07-13T01:59:49;12.95;;;4.30;;
72801;SDS011;61891;55.818;37.084;2023-07-13T02:02:16;11.38;;;3.90;;
72801;SDS011;61891;55.818;37.084;2023-07-13T02:04:42;13.25;;;4.78;;
72801;SDS011;61891;55.818;37.084;2023-07-13T02:07:08;7.78;;;3.42;;
72801;SDS011;61891;55.818;37.084;2023-07-13T02:09:34;7.05;;;3.00;;
72801;SDS011;61891;55.818;37.084;2023-07-13T02:12:00;4.80;;;2.45;;
72801;SDS011;61891;55.818;37.084;2023-07-13T02:14:33;5.05;;;2.40;;
72801;SDS011;61891;55.818;37.084;2023-07-13T02:17:00;6.72;;;2.67;;
72801;SDS011;61891;55.818;37.084;2023-07-13T02:19:26;6.30;;;2.13;;
72801;SDS011;61891;55.818;37.084;2023-07-13T02:21:52;5.65;;;2.65;;
72801;SDS011;61891;55.818;37.084;2023-07-13T02:24:18;3.55;;;2.17;;
72801;SDS011;61891;55.818;37.084;2023-07-13T02:26:46;6.20;;;2.50;;
72801;SDS011;61891;55.818;37.084;2023-07-13T02:29:14;5.32;;;2.53;;
72801;SDS011;61891;55.818;37.084;2023-07-13T02:31:40;4.30;;;2.60;;
72801;SDS011;61891;55.818;37.084;2023-07-13T02:34:06;5.43;;;2.67;;
72801;SDS011;61891;55.818;37.084;2023-07-13T02:36:32;4.43;;;2.63;;
72801;SDS011;61891;55.818;37.084;2023-07-13T02:39:00;4.03;;;2.20;;
72801;SDS011;61891;55.818;37.084;2023-07-13T02:41:27;4.47;;;2.35;;
72801;SDS011;61891;55.818;37.084;2023-07-13T02:43:53;5.88;;;2.58;;
72801;SDS011;61891;55.818;37.084;2023-07-13T02:46:19;4.80;;;2.55;;
72801;SDS011;61891;55.818;37.084;2023-07-13T02:48:45;4.25;;;2.50;;
72801;SDS011;61891;55.818;37.084;2023-07-13T02:51:13;4.32;;;2.50;;
72801;SDS011;61891;55.818;37.084;2023-07-13T02:53:39;4.90;;;2.28;;
72801;SDS011;61891;55.818;37.084;2023-07-13T02:56:05;4.32;;;2.70;;
72801;SDS011;61891;55.818;37.084;2023-07-13T02:58:32;3.88;;;2.30;;
72801;SDS011;61891;55.818;37.084;2023-07-13T03:01:05;5.43;;;2.42;;
72801;SDS011;61891;55.818;37.084;2023-07-13T03:03:35;3.38;;;2.10;;
72801;SDS011;61891;55.818;37.084;2023-07-13T03:06:03;2.72;;;2.20;;
72801;SDS011;61891;55.818;37.084;2023-07-13T03:08:36;3.15;;;2.33;;
72801;SDS011;61891;55.818;37.084;2023-07-13T03:11:07;4.35;;;2.22;;
72801;SDS011;61891;55.818;37.084;2023-07-13T03:13:39;5.25;;;2.20;;
72801;SDS011;61891;55.818;37.084;2023-07-13T03:16:06;3.70;;;2.00;;
72801;SDS011;61891;55.818;37.084;2023-07-13T03:18:33;4.28;;;1.98;;
72801;SDS011;61891;55.818;37.084;2023-07-13T03:43:19;3.25;;;2.30;;
72801;SDS011;61891;55.818;37.084;2023-07-13T03:45:46;3.08;;;2.00;;
72801;SDS011;61891;55.818;37.084;2023-07-13T03:48:13;4.82;;;1.90;;
72801;SDS011;61891;55.818;37.084;2023-07-13T03:50:39;3.75;;;2.03;;
72801;SDS011;61891;55.818;37.084;2023-07-13T03:53:05;5.13;;;2.15;;
72801;SDS011;61891;55.818;37.084;2023-07-13T03:55:31;3.63;;;2.35;;
72801;SDS011;61891;55.818;37.084;2023-07-13T03:57:59;3.35;;;2.42;;
72801;SDS011;61891;55.818;37.084;2023-07-13T04:00:45;5.05;;;1.90;;
72801;SDS011;61891;55.818;37.084;2023-07-13T04:03:11;4.15;;;1.85;;
72801;SDS011;61891;55.818;37.084;2023-07-13T04:05:37;5.10;;;2.20;;
72801;SDS011;61891;55.818;37.084;2023-07-13T04:08:06;7.05;;;1.92;;
72801;SDS011;61891;55.818;37.084;2023-07-13T04:10:34;4.72;;;2.30;;
72801;SDS011;61891;55.818;37.084;2023-07-13T04:12:59;3.10;;;1.77;;
72801;SDS011;61891;55.818;37.084;2023-07-13T04:15:26;3.70;;;2.25;;
72801;SDS011;61891;55.818;37.084;2023-07-13T04:17:54;4.18;;;2.08;;
72801;SDS011;61891;55.818;37.084;2023-07-13T04:20:20;3.22;;;2.00;;
72801;SDS011;61891;55.818;37.084;2023-07-13T04:22:47;4.05;;;2.13;;
72801;SDS011;61891;55.818;37.084;2023-07-13T04:25:12;3.35;;;2.00;;
72801;SDS011;61891;55.818;37.084;2023-07-13T04:27:38;2.97;;;2.13;;
72801;SDS011;61891;55.818;37.084;2023-07-13T04:32:31;4.18;;;2.05;;
72801;SDS011;61891;55.818;37.084;2023-07-13T04:34:57;5.50;;;2.40;;
72801;SDS011;61891;55.818;37.084;2023-07-13T04:37:25;5.88;;;2.20;;
72801;SDS011;61891;55.818;37.084;2023-07-13T04:39:51;4.28;;;2.17;;
72801;SDS011;61891;55.818;37.084;2023-07-13T04:42:18;3.33;;;2.03;;
72801;SDS011;61891;55.818;37.084;2023-07-13T04:44:48;3.97;;;1.95;;
72801;SDS011;61891;55.818;37.084;2023-07-13T04:47:15;5.88;;;2.40;;
72801;SDS011;61891;55.818;37.084;2023-07-13T04:49:41;2.97;;;2.10;;
72801;SDS011;61891;55.818;37.084;2023-07-13T04:52:07;3.83;;;2.30;;
72801;SDS011;61891;55.818;37.084;2023-07-13T04:54:34;3.40;;;1.95;;
72801;SDS011;61891;55.818;37.084;2023-07-13T04:57:00;4.15;;;2.42;;
72801;SDS011;61891;55.818;37.084;2023-07-13T04:59:26;4.32;;;2.10;;
72801;SDS011;61891;55.818;37.084;2023-07-13T05:01:52;4.95;;;1.95;;
72801;SDS011;61891;55.818;37.084;2023-07-13T05:06:44;3.22;;;1.70;;
72801;SDS011;61891;55.818;37.084;2023-07-13T05:09:10;3.95;;;2.20;;
72801;SDS011;61891;55.818;37.084;2023-07-13T05:11:35;3.08;;;2.10;;
72801;SDS011;61891;55.818;37.084;2023-07-13T05:14:01;4.43;;;2.00;;
72801;SDS011;61891;55.818;37.084;2023-07-13T05:16:27;4.47;;;2.42;;
72801;SDS011;61891;55.818;37.084;2023-07-13T05:18:53;3.30;;;2.03;;
72801;SDS011;61891;55.818;37.084;2023-07-13T05:23:45;4.32;;;1.83;;
72801;SDS011;61891;55.818;37.084;2023-07-13T05:26:12;3.28;;;2.10;;
72801;SDS011;61891;55.818;37.084;2023-07-13T05:28:38;2.85;;;2.17;;
72801;SDS011;61891;55.818;37.084;2023-07-13T05:31:04;2.45;;;1.90;;
72801;SDS011;61891;55.818;37.084;2023-07-13T05:33:32;3.22;;;2.20;;
72801;SDS011;61891;55.818;37.084;2023-07-13T05:35:58;3.08;;;1.90;;
72801;SDS011;61891;55.818;37.084;2023-07-13T05:38:25;4.82;;;2.05;;
72801;SDS011;61891;55.818;37.084;2023-07-13T05:40:53;5.32;;;2.00;;
72801;SDS011;61891;55.818;37.084;2023-07-13T05:43:20;3.17;;;1.88;;
72801;SDS011;61891;55.818;37.084;2023-07-13T05:45:46;4.00;;;1.90;;
72801;SDS011;61891;55.818;37.084;2023-07-13T05:48:12;4.30;;;1.90;;
72801;SDS011;61891;55.818;37.084;2023-07-13T05:50:37;3.58;;;2.08;;
72801;SDS011;61891;55.818;37.084;2023-07-13T05:53:04;3.05;;;1.73;;
72801;SDS011;61891;55.818;37.084;2023-07-13T05:55:30;3.40;;;1.52;;
72801;SDS011;61891;55.818;37.084;2023-07-13T05:57:56;3.00;;;1.67;;
72801;SDS011;61891;55.818;37.084;2023-07-13T06:00:23;3.58;;;1.90;;
72801;SDS011;61891;55.818;37.084;2023-07-13T06:02:50;4.13;;;1.80;;
72801;SDS011;61891;55.818;37.084;2023-07-13T06:05:15;4.38;;;1.70;;
72801;SDS011;61891;55.818;37.084;2023-07-13T06:07:41;2.53;;;1.70;;
72801;SDS011;61891;55.818;37.084;2023-07-13T06:10:07;3.08;;;1.70;;
72801;SDS011;61891;55.818;37.084;2023-07-13T06:12:34;5.80;;;2.05;;
72801;SDS011;61891;55.818;37.084;2023-07-13T06:14:59;3.83;;;2.17;;
72801;SDS011;61891;55.818;37.084;2023-07-13T06:17:25;4.60;;;2.10;;
72801;SDS011;61891;55.818;37.084;2023-07-13T06:19:51;2.15;;;1.63;;
72801;SDS011;61891;55.818;37.084;2023-07-13T06:22:17;2.00;;;1.63;;
72801;SDS011;61891;55.818;37.084;2023-07-13T06:24:42;5.15;;;2.08;;
72801;SDS011;61891;55.818;37.084;2023-07-13T06:27:08;4.25;;;2.25;;
72801;SDS011;61891;55.818;37.084;2023-07-13T06:29:34;2.63;;;1.95;;
72801;SDS011;61891;55.818;37.084;2023-07-13T06:32:00;5.03;;;1.98;;
72801;SDS011;61891;55.818;37.084;2023-07-13T06:34:26;2.22;;;1.73;;
72801;SDS011;61891;55.818;37.084;2023-07-13T06:36:52;2.63;;;1.90;;
72801;SDS011;61891;55.818;37.084;2023-07-13T06:39:18;4.57;;;1.98;;
72801;SDS011;61891;55.818;37.084;2023-07-13T06:41:43;4.57;;;1.38;;
72801;SDS011;61891;55.818;37.084;2023-07-13T06:44:13;2.90;;;1.58;;
72801;SDS011;61891;55.818;37.084;2023-07-13T06:46:38;2.33;;;1.80;;
72801;SDS011;61891;55.818;37.084;2023-07-13T06:49:04;3.05;;;2.00;;
72801;SDS011;61891;55.818;37.084;2023-07-13T06:51:30;4.50;;;2.03;;
72801;SDS011;61891;55.818;37.084;2023-07-13T06:53:55;4.57;;;1.80;;
72801;SDS011;61891;55.818;37.084;2023-07-13T06:56:21;3.63;;;2.10;;
72801;SDS011;61891;55.818;37.084;2023-07-13T06:58:47;4.30;;;2.22;;
72801;SDS011;61891;55.818;37.084;2023-07-13T07:01:13;8.43;;;3.13;;
72801;SDS011;61891;55.818;37.084;2023-07-13T07:03:38;5.22;;;2.08;;
72801;SDS011;61891;55.818;37.084;2023-07-13T07:06:15;5.72;;;2.40;;
72801;SDS011;61891;55.818;37.084;2023-07-13T07:08:43;8.82;;;3.03;;
72801;SDS011;61891;55.818;37.084;2023-07-13T07:11:17;6.93;;;2.95;;
72801;SDS011;61891;55.818;37.084;2023-07-13T07:13:45;8.75;;;3.28;;
72801;SDS011;61891;55.818;37.084;2023-07-13T07:16:10;9.48;;;3.05;;
72801;SDS011;61891;55.818;37.084;2023-07-13T07:18:36;9.32;;;2.67;;
72801;SDS011;61891;55.818;37.084;2023-07-13T07:23:28;5.80;;;2.58;;
72801;SDS011;61891;55.818;37.084;2023-07-13T07:25:54;6.32;;;2.40;;
72801;SDS011;61891;55.818;37.084;2023-07-13T07:28:20;8.98;;;2.42;;
72801;SDS011;61891;55.818;37.084;2023-07-13T07:33:12;3.92;;;2.20;;
72801;SDS011;61891;55.818;37.084;2023-07-13T07:35:39;3.95;;;2.03;;
72801;SDS011;61891;55.818;37.084;2023-07-13T07:38:05;6.25;;;2.47;;
72801;SDS011;61891;55.818;37.084;2023-07-13T07:40:31;9.95;;;2.72;;
72801;SDS011;61891;55.818;37.084;2023-07-13T07:45:23;4.93;;;2.50;;
72801;SDS011;61891;55.818;37.084;2023-07-13T07:47:49;8.45;;;3.00;;
72801;SDS011;61891;55.818;37.084;2023-07-13T07:50:15;7.32;;;2.03;;
72801;SDS011;61891;55.818;37.084;2023-07-13T07:52:41;5.60;;;2.13;;
72801;SDS011;61891;55.818;37.084;2023-07-13T07:57:33;4.85;;;1.80;;
72801;SDS011;61891;55.818;37.084;2023-07-13T07:59:59;4.45;;;2.35;;
72801;SDS011;61891;55.818;37.084;2023-07-13T08:02:25;2.67;;;2.03;;
72801;SDS011;61891;55.818;37.084;2023-07-13T08:07:17;6.70;;;2.38;;
72801;SDS011;61891;55.818;37.084;2023-07-13T08:09:43;4.80;;;2.38;;
72801;SDS011;61891;55.818;37.084;2023-07-13T08:12:09;10.40;;;3.10;;
72801;SDS011;61891;55.818;37.084;2023-07-13T08:17:01;7.38;;;2.72;;
72801;SDS011;61891;55.818;37.084;2023-07-13T08:19:27;7.05;;;2.35;;
72801;SDS011;61891;55.818;37.084;2023-07-13T08:21:53;5.32;;;2.50;;
72801;SDS011;61891;55.818;37.084;2023-07-13T08:24:18;3.53;;;1.85;;
72801;SDS011;61891;55.818;37.084;2023-07-13T08:26:47;3.50;;;2.28;;
72801;SDS011;61891;55.818;37.084;2023-07-13T08:29:13;5.40;;;2.20;;
72801;SDS011;61891;55.818;37.084;2023-07-13T08:31:39;5.65;;;3.20;;
72801;SDS011;61891;55.818;37.084;2023-07-13T08:34:05;3.50;;;2.15;;
72801;SDS011;61891;55.818;37.084;2023-07-13T08:36:30;2.80;;;2.03;;
72801;SDS011;61891;55.818;37.084;2023-07-13T08:38:56;3.30;;;2.00;;
72801;SDS011;61891;55.818;37.084;2023-07-13T08:41:22;4.90;;;2.50;;
72801;SDS011;61891;55.818;37.084;2023-07-13T08:43:50;4.80;;;2.97;;
72801;SDS011;61891;55.818;37.084;2023-07-13T08:46:23;3.25;;;2.30;;
72801;SDS011;61891;55.818;37.084;2023-07-13T08:49:08;4.68;;;3.13;;
72801;SDS011;61891;55.818;37.084;2023-07-13T08:51:44;4.25;;;2.50;;
72801;SDS011;61891;55.818;37.084;2023-07-13T08:56:44;4.25;;;2.63;;
72801;SDS011;61891;55.818;37.084;2023-07-13T08:59:17;4.15;;;2.45;;
72801;SDS011;61891;55.818;37.084;2023-07-13T09:04:21;4.03;;;2.72;;
72801;SDS011;61891;55.818;37.084;2023-07-13T09:15:02;3.33;;;2.20;;
72801;SDS011;61891;55.818;37.084;2023-07-13T09:17:35;4.45;;;2.28;;
72801;SDS011;61891;55.818;37.084;2023-07-13T09:20:29;3.33;;;2.55;;
72801;SDS011;61891;55.818;37.084;2023-07-13T09:23:01;4.25;;;2.30;;
72801;SDS011;61891;55.818;37.084;2023-07-13T09:25:33;3.63;;;2.58;;
72801;SDS011;61891;55.818;37.084;2023-07-13T09:28:11;4.38;;;2.90;;
72801;SDS011;61891;55.818;37.084;2023-07-13T09:33:14;3.63;;;2.50;;
72801;SDS011;61891;55.818;37.084;2023-07-13T09:35:40;5.00;;;2.50;;
72801;SDS011;61891;55.818;37.084;2023-07-13T09:38:14;4.75;;;2.30;;
72801;SDS011;61891;55.818;37.084;2023-07-13T09:40:44;4.47;;;2.70;;
72801;SDS011;61891;55.818;37.084;2023-07-13T09:43:14;5.40;;;2.88;;
72801;SDS011;61891;55.818;37.084;2023-07-13T09:45:41;9.35;;;3.22;;
72801;SDS011;61891;55.818;37.084;2023-07-13T09:48:12;5.78;;;2.95;;
72801;SDS011;61891;55.818;37.084;2023-07-13T09:50:40;5.03;;;2.50;;
72801;SDS011;61891;55.818;37.084;2023-07-13T09:53:13;5.03;;;2.75;;
72801;SDS011;61891;55.818;37.084;2023-07-13T09:55:44;5.57;;;3.15;;
72801;SDS011;61891;55.818;37.084;2023-07-13T09:58:19;12.75;;;4.82;;
72801;SDS011;61891;55.818;37.084;2023-07-13T10:00:56;18.13;;;6.05;;
72801;SDS011;61891;55.818;37.084;2023-07-13T10:03:33;6.72;;;3.42;;
72801;SDS011;61891;55.818;37.084;2023-07-13T10:06:15;3.00;;;2.38;;
72801;SDS011;61891;55.818;37.084;2023-07-13T10:08:44;2.58;;;1.48;;
72801;SDS011;61891;55.818;37.084;2023-07-13T10:11:20;3.90;;;2.30;;
72801;SDS011;61891;55.818;37.084;2023-07-13T10:13:54;4.53;;;2.83;;
72801;SDS011;61891;55.818;37.084;2023-07-13T10:16:25;7.28;;;2.88;;
72801;SDS011;61891;55.818;37.084;2023-07-13T10:18:59;14.38;;;4.88;;
72801;SDS011;61891;55.818;37.084;2023-07-13T10:21:32;19.55;;;6.18;;
72801;SDS011;61891;55.818;37.084;2023-07-13T10:24:45;19.05;;;5.22;;
72801;SDS011;61891;55.818;37.084;2023-07-13T10:26:56;16.08;;;5.32;;
72801;SDS011;61891;55.818;37.084;2023-07-13T10:29:27;11.32;;;3.58;;
72801;SDS011;61891;55.818;37.084;2023-07-13T10:31:56;10.82;;;4.00;;
72801;SDS011;61891;55.818;37.084;2023-07-13T10:34:22;19.65;;;5.40;;
72801;SDS011;61891;55.818;37.084;2023-07-13T10:36:49;18.17;;;5.30;;
72801;SDS011;61891;55.818;37.084;2023-07-13T10:39:22;10.45;;;3.25;;
72801;SDS011;61891;55.818;37.084;2023-07-13T10:42:00;5.53;;;3.58;;
72801;SDS011;61891;55.818;37.084;2023-07-13T10:44:32;3.78;;;2.67;;
72801;SDS011;61891;55.818;37.084;2023-07-13T10:47:00;4.97;;;3.55;;
72801;SDS011;61891;55.818;37.084;2023-07-13T10:49:29;6.85;;;3.78;;
72801;SDS011;61891;55.818;37.084;2023-07-13T10:51:56;4.57;;;3.05;;
72801;SDS011;61891;55.818;37.084;2023-07-13T10:54:27;6.63;;;3.88;;
72801;SDS011;61891;55.818;37.084;2023-07-13T11:02:55;7.68;;;2.80;;
72801;SDS011;61891;55.818;37.084;2023-07-13T11:05:26;5.47;;;2.92;;
72801;SDS011;61891;55.818;37.084;2023-07-13T11:08:16;6.50;;;3.95;;
72801;SDS011;61891;55.818;37.084;2023-07-13T11:10:47;5.93;;;3.63;;
72801;SDS011;61891;55.818;37.084;2023-07-13T11:21:27;4.35;;;2.80;;
72801;SDS011;61891;55.818;37.084;2023-07-13T11:31:57;5.60;;;3.50;;
72801;SDS011;61891;55.818;37.084;2023-07-13T11:34:27;5.72;;;3.70;;
72801;SDS011;61891;55.818;37.084;2023-07-13T11:36:59;5.47;;;3.13;;
72801;SDS011;61891;55.818;37.084;2023-07-13T11:39:36;5.35;;;3.65;;
72801;SDS011;61891;55.818;37.084;2023-07-13T11:42:05;5.43;;;3.83;;
72801;SDS011;61891;55.818;37.084;2023-07-13T11:44:41;6.65;;;3.28;;
72801;SDS011;61891;55.818;37.084;2023-07-13T11:47:09;4.97;;;3.40;;
72801;SDS011;61891;55.818;37.084;2023-07-13T11:49:43;8.52;;;3.95;;
72801;SDS011;61891;55.818;37.084;2023-07-13T11:52:17;9.38;;;4.50;;
72801;SDS011;61891;55.818;37.084;2023-07-13T11:54:49;6.78;;;3.50;;
72801;SDS011;61891;55.818;37.084;2023-07-13T11:57:26;8.63;;;4.38;;
72801;SDS011;61891;55.818;37.084;2023-07-13T11:59:54;8.65;;;4.05;;
72801;SDS011;61891;55.818;37.084;2023-07-13T12:05:15;8.27;;;4.07;;
72801;SDS011;61891;55.818;37.084;2023-07-13T12:07:49;4.90;;;3.25;;
72801;SDS011;61891;55.818;37.084;2023-07-13T12:12:51;6.40;;;3.60;;
72801;SDS011;61891;55.818;37.084;2023-07-13T12:15:39;4.68;;;2.95;;
72801;SDS011;61891;55.818;37.084;2023-07-13T12:18:28;5.75;;;3.13;;
72801;SDS011;61891;55.818;37.084;2023-07-13T12:20:56;4.18;;;3.28;;
72801;SDS011;61891;55.818;37.084;2023-07-13T12:23:24;8.35;;;4.13;;
72801;SDS011;61891;55.818;37.084;2023-07-13T12:25:54;5.60;;;4.00;;
72801;SDS011;61891;55.818;37.084;2023-07-13T12:28:22;6.45;;;3.90;;
72801;SDS011;61891;55.818;37.084;2023-07-13T12:31:03;5.63;;;4.03;;
72801;SDS011;61891;55.818;37.084;2023-07-13T12:33:48;5.13;;;3.30;;
72801;SDS011;61891;55.818;37.084;2023-07-13T12:36:22;4.93;;;3.10;;
72801;SDS011;61891;55.818;37.084;2023-07-13T12:38:48;5.25;;;3.03;;
72801;SDS011;61891;55.818;37.084;2023-07-13T12:41:14;4.43;;;3.17;;
72801;SDS011;61891;55.818;37.084;2023-07-13T12:43:40;5.70;;;3.20;;
72801;SDS011;61891;55.818;37.084;2023-07-13T12:48:52;6.70;;;4.30;;
72801;SDS011;61891;55.818;37.084;2023-07-13T12:51:24;8.32;;;3.60;;
72801;SDS011;61891;55.818;37.084;2023-07-13T12:53:55;6.43;;;3.40;;
72801;SDS011;61891;55.818;37.084;2023-07-13T12:56:26;7.47;;;3.83;;
72801;SDS011;61891;55.818;37.084;2023-07-13T12:58:57;7.82;;;3.83;;
72801;SDS011;61891;55.818;37.084;2023-07-13T13:01:27;5.95;;;3.78;;
72801;SDS011;61891;55.818;37.084;2023-07-13T13:03:54;7.45;;;3.70;;
72801;SDS011;61891;55.818;37.084;2023-07-13T13:06:22;6.13;;;3.83;;
72801;SDS011;61891;55.818;37.084;2023-07-13T13:09:00;7.65;;;4.30;;
72801;SDS011;61891;55.818;37.084;2023-07-13T13:11:27;4.63;;;2.97;;
72801;SDS011;61891;55.818;37.084;2023-07-13T13:13:55;4.72;;;2.80;;
72801;SDS011;61891;55.818;37.084;2023-07-13T13:16:31;6.63;;;3.03;;
72801;SDS011;61891;55.818;37.084;2023-07-13T13:18:59;4.63;;;3.30;;
72801;SDS011;61891;55.818;37.084;2023-07-13T13:21:34;5.40;;;3.35;;
72801;SDS011;61891;55.818;37.084;2023-07-13T13:23:59;4.97;;;3.35;;
72801;SDS011;61891;55.818;37.084;2023-07-13T13:26:25;3.83;;;2.70;;
72801;SDS011;61891;55.818;37.084;2023-07-13T13:28:51;4.55;;;2.40;;
72801;SDS011;61891;55.818;37.084;2023-07-13T13:31:17;4.70;;;2.80;;
72801;SDS011;61891;55.818;37.084;2023-07-13T13:33:43;9.85;;;4.03;;
72801;SDS011;61891;55.818;37.084;2023-07-13T13:36:22;5.05;;;3.63;;
72801;SDS011;61891;55.818;37.084;2023-07-13T13:38:49;8.70;;;2.97;;
72801;SDS011;61891;55.818;37.084;2023-07-13T13:41:16;4.68;;;2.83;;
72801;SDS011;61891;55.818;37.084;2023-07-13T13:43:42;6.53;;;3.08;;
72801;SDS011;61891;55.818;37.084;2023-07-13T13:46:13;5.57;;;3.15;;
72801;SDS011;61891;55.818;37.084;2023-07-13T13:48:42;7.80;;;3.65;;
72801;SDS011;61891;55.818;37.084;2023-07-13T13:51:14;5.80;;;3.08;;
72801;SDS011;61891;55.818;37.084;2023-07-13T13:53:43;6.90;;;3.70;;
72801;SDS011;61891;55.818;37.084;2023-07-13T13:56:09;7.63;;;2.85;;
72801;SDS011;61891;55.818;37.084;2023-07-13T13:58:35;6.80;;;3.08;;
72801;SDS011;61891;55.818;37.084;2023-07-13T14:01:00;9.18;;;4.05;;
72801;SDS011;61891;55.818;37.084;2023-07-13T14:03:26;8.30;;;3.40;;
72801;SDS011;61891;55.818;37.084;2023-07-13T14:05:53;10.30;;;3.97;;
72801;SDS011;61891;55.818;37.084;2023-07-13T14:08:21;15.88;;;5.15;;
72801;SDS011;61891;55.818;37.084;2023-07-13T14:10:51;9.00;;;4.07;;
72801;SDS011;61891;55.818;37.084;2023-07-13T14:13:20;9.88;;;4.18;;
72801;SDS011;61891;55.818;37.084;2023-07-13T14:15:52;10.07;;;4.40;;
72801;SDS011;61891;55.818;37.084;2023-07-13T14:18:18;17.17;;;7.70;;
72801;SDS011;61891;55.818;37.084;2023-07-13T14:20:45;9.30;;;4.47;;
72801;SDS011;61891;55.818;37.084;2023-07-13T14:23:14;6.90;;;4.03;;
72801;SDS011;61891;55.818;37.084;2023-07-13T14:25:41;8.88;;;5.40;;
72801;SDS011;61891;55.818;37.084;2023-07-13T14:30:46;8.10;;;4.60;;
72801;SDS011;61891;55.818;37.084;2023-07-13T14:33:12;6.85;;;3.30;;
72801;SDS011;61891;55.818;37.084;2023-07-13T14:35:38;5.90;;;3.47;;
72801;SDS011;61891;55.818;37.084;2023-07-13T14:38:04;5.07;;;3.30;;
72801;SDS011;61891;55.818;37.084;2023-07-13T14:40:34;4.93;;;3.00;;
72801;SDS011;61891;55.818;37.084;2023-07-13T14:43:00;5.85;;;3.28;;
72801;SDS011;61891;55.818;37.084;2023-07-13T14:45:26;5.95;;;3.33;;
72801;SDS011;61891;55.818;37.084;2023-07-13T14:47:52;6.57;;;3.20;;
72801;SDS011;61891;55.818;37.084;2023-07-13T14:50:19;4.55;;;2.75;;
72801;SDS011;61891;55.818;37.084;2023-07-13T14:52:46;7.32;;;3.17;;
72801;SDS011;61891;55.818;37.084;2023-07-13T14:55:15;4.72;;;3.17;;
72801;SDS011;61891;55.818;37.084;2023-07-13T14:57:44;5.00;;;3.78;;
72801;SDS011;61891;55.818;37.084;2023-07-13T15:00:14;5.25;;;2.45;;
72801;SDS011;61891;55.818;37.084;2023-07-13T15:02:43;5.75;;;3.00;;
72801;SDS011;61891;55.818;37.084;2023-07-13T15:05:13;5.55;;;3.08;;
72801;SDS011;61891;55.818;37.084;2023-07-13T15:07:39;3.95;;;2.90;;
72801;SDS011;61891;55.818;37.084;2023-07-13T15:10:15;6.60;;;3.25;;
72801;SDS011;61891;55.818;37.084;2023-07-13T15:12:45;4.63;;;2.90;;
72801;SDS011;61891;55.818;37.084;2023-07-13T15:15:11;8.13;;;3.30;;
72801;SDS011;61891;55.818;37.084;2023-07-13T15:17:39;5.32;;;3.03;;
72801;SDS011;61891;55.818;37.084;2023-07-13T15:22:46;6.55;;;3.20;;
72801;SDS011;61891;55.818;37.084;2023-07-13T15:25:20;6.88;;;3.45;;
72801;SDS011;61891;55.818;37.084;2023-07-13T15:27:49;5.82;;;3.13;;
72801;SDS011;61891;55.818;37.084;2023-07-13T15:30:15;4.70;;;3.10;;
72801;SDS011;61891;55.818;37.084;2023-07-13T15:32:44;5.15;;;3.42;;
72801;SDS011;61891;55.818;37.084;2023-07-13T15:35:18;8.05;;;3.78;;
72801;SDS011;61891;55.818;37.084;2023-07-13T15:37:48;6.93;;;3.50;;
72801;SDS011;61891;55.818;37.084;2023-07-13T15:40:15;5.40;;;3.17;;
72801;SDS011;61891;55.818;37.084;2023-07-13T15:42:42;6.43;;;2.92;;
72801;SDS011;61891;55.818;37.084;2023-07-13T15:45:30;6.85;;;3.13;;
72801;SDS011;61891;55.818;37.084;2023-07-13T15:47:56;4.90;;;3.05;;
72801;SDS011;61891;55.818;37.084;2023-07-13T15:50:22;5.82;;;3.28;;
72801;SDS011;61891;55.818;37.084;2023-07-13T15:52:53;6.43;;;3.28;;
72801;SDS011;61891;55.818;37.084;2023-07-13T15:55:20;5.25;;;3.28;;
72801;SDS011;61891;55.818;37.084;2023-07-13T16:00:24;4.43;;;2.78;;
72801;SDS011;61891;55.818;37.084;2023-07-13T16:02:52;4.97;;;3.20;;
72801;SDS011;61891;55.818;37.084;2023-07-13T16:05:19;4.95;;;2.90;;
72801;SDS011;61891;55.818;37.084;2023-07-13T16:07:47;4.68;;;3.05;;
72801;SDS011;61891;55.818;37.084;2023-07-13T16:10:35;6.95;;;3.80;;
72801;SDS011;61891;55.818;37.084;2023-07-13T16:13:15;7.32;;;4.20;;
72801;SDS011;61891;55.818;37.084;2023-07-13T16:15:44;9.15;;;4.95;;
72801;SDS011;61891;55.818;37.084;2023-07-13T16:18:11;6.18;;;3.67;;
72801;SDS011;61891;55.818;37.084;2023-07-13T16:20:44;6.18;;;3.78;;
72801;SDS011;61891;55.818;37.084;2023-07-13T16:23:11;6.18;;;3.42;;
72801;SDS011;61891;55.818;37.084;2023-07-13T16:25:39;5.20;;;3.50;;
72801;SDS011;61891;55.818;37.084;2023-07-13T16:28:06;5.22;;;3.22;;
72801;SDS011;61891;55.818;37.084;2023-07-13T16:30:34;6.78;;;4.75;;